Time;durP1;ratioP1;P1;durP2;ratioP2;P2;SDS_P1;SDS_P2;PMS_P1;PMS_P2;Temp;Humidity;BMP_temperature;BMP_pressure;BME280_temperature;BME280_humidity;BME280_pressure;Samples;Min_cycle;Max_cycle;Signal;HPM_P1;HPM_P2
2021/06/02 00:00:46;;;;;;;4.47;3.20;;;;;;;;;;5015984;28;20482;-48
2021/06/02 00:03:14;;;;;;;6.22;3.28;;;;;;;;;;5031998;28;20053;-57
2021/06/02 00:05:41;;;;;;;5.32;3.17;;;;;;;;;;5030437;28;20081;-61
2021/06/02 00:08:09;;;;;;;7.00;3.08;;;;;;;;;;5025955;28;20050;-57
2021/06/02 00:10:36;;;;;;;4.78;2.75;;;;;;;;;;5031701;28;20045;-59
2021/06/02 00:13:03;;;;;;;5.63;3.00;;;;;;;;;;5032375;28;20049;-60
2021/06/02 00:15:30;;;;;;;6.18;3.67;;;;;;;;;;5020189;28;20050;-61
2021/06/02 00:18:00;;;;;;;5.53;3.33;;;;;;;;;;5016663;28;20072;-58
2021/06/02 00:20:26;;;;;;;5.25;3.10;;;;;;;;;;5032361;28;20077;-53
2021/06/02 00:22:53;;;;;;;4.93;3.30;;;;;;;;;;5031918;28;20133;-48
2021/06/02 00:25:20;;;;;;;8.25;3.80;;;;;;;;;;5014439;28;20079;-53
2021/06/02 00:27:47;;;;;;;6.80;3.53;;;;;;;;;;5021265;28;20076;-50
2021/06/02 00:30:17;;;;;;;4.03;3.40;;;;;;;;;;5019059;28;20049;-50
2021/06/02 00:32:44;;;;;;;5.20;3.60;;;;;;;;;;5031223;28;20053;-49
2021/06/02 00:35:11;;;;;;;5.00;3.50;;;;;;;;;;5030677;28;20072;-53
2021/06/02 00:37:39;;;;;;;7.88;3.50;;;;;;;;;;5026441;28;20045;-52
2021/06/02 00:40:07;;;;;;;5.80;3.55;;;;;;;;;;5023203;28;20506;-49
2021/06/02 00:42:33;;;;;;;6.05;3.47;;;;;;;;;;5030239;28;20057;-53
2021/06/02 00:45:00;;;;;;;5.25;3.38;;;;;;;;;;5023716;28;20456;-49
2021/06/02 00:47:27;;;;;;;9.00;4.18;;;;;;;;;;5029108;28;20045;-52
2021/06/02 00:49:54;;;;;;;5.20;3.78;;;;;;;;;;5031091;28;20443;-49
2021/06/02 00:52:21;;;;;;;6.65;3.97;;;;;;;;;;5030537;28;20510;-51
2021/06/02 00:54:48;;;;;;;6.55;3.85;;;;;;;;;;5030908;28;20124;-53
2021/06/02 00:57:16;;;;;;;9.05;4.13;;;;;;;;;;5016393;28;20540;-50
2021/06/02 00:59:49;;;;;;;6.13;3.90;;;;;;;;;;5011984;28;20115;-53
2021/06/02 01:02:17;;;;;;;6.47;4.03;;;;;;;;;;5023630;28;20053;-54
2021/06/02 01:04:44;;;;;;;7.60;3.75;;;;;;;;;;5030409;28;20200;-54
2021/06/02 01:07:12;;;;;;;6.72;4.00;;;;;;;;;;5035862;28;20045;-51
2021/06/02 01:09:46;;;;;;;5.28;4.30;;;;;;;;;;5030395;28;20049;-53
2021/06/02 01:12:21;;;;;;;6.80;3.97;;;;;;;;;;5028842;28;20049;-49
2021/06/02 01:14:52;;;;;;;6.22;4.30;;;;;;;;;;5025067;28;20073;-51
2021/06/02 01:17:21;;;;;;;7.38;4.07;;;;;;;;;;5011256;28;20072;-53
2021/06/02 01:19:49;;;;;;;5.40;4.05;;;;;;;;;;5028131;28;20510;-51
2021/06/02 01:22:16;;;;;;;7.78;4.75;;;;;;;;;;5028293;28;20049;-51
2021/06/02 01:24:43;;;;;;;6.53;4.30;;;;;;;;;;5028347;28;20145;-52
2021/06/02 01:27:10;;;;;;;5.93;4.35;;;;;;;;;;5029640;28;20077;-53
2021/06/02 01:29:38;;;;;;;8.80;4.47;;;;;;;;;;5016006;28;20104;-53
2021/06/02 01:32:22;;;;;;;7.50;5.50;;;;;;;;;;5017727;28;20450;-51
2021/06/02 01:34:58;;;;;;;5.53;4.65;;;;;;;;;;5030588;28;20050;-50
2021/06/02 01:37:25;;;;;;;7.95;5.03;;;;;;;;;;5029982;28;20049;-56
2021/06/02 01:39:52;;;;;;;6.75;4.45;;;;;;;;;;5024891;28;20406;-51
2021/06/02 01:42:43;;;;;;;9.88;5.10;;;;;;;;;;5029957;28;20053;-50
2021/06/02 01:45:22;;;;;;;6.53;4.40;;;;;;;;;;5029544;28;20056;-52
2021/06/02 01:48:08;;;;;;;7.47;5.05;;;;;;;;;;5024883;28;20133;-55
2021/06/02 01:51:03;;;;;;;7.13;4.43;;;;;;;;;;5029720;28;20045;-53
2021/06/02 01:53:47;;;;;;;6.82;4.63;;;;;;;;;;5029812;28;20111;-52
2021/06/02 01:56:17;;;;;;;7.78;4.68;;;;;;;;;;5023698;28;20041;-52
2021/06/02 01:58:53;;;;;;;7.25;4.43;;;;;;;;;;5024996;28;20122;-50
2021/06/02 02:01:39;;;;;;;7.68;4.47;;;;;;;;;;5023535;28;20132;-52
2021/06/02 02:04:29;;;;;;;7.65;4.70;;;;;;;;;;5029400;28;20531;-53
2021/06/02 02:06:58;;;;;;;5.82;4.80;;;;;;;;;;5033745;28;20098;-50
2021/06/02 02:09:33;;;;;;;7.88;5.22;;;;;;;;;;5028113;28;20503;-51
2021/06/02 02:12:15;;;;;;;8.50;4.97;;;;;;;;;;5025807;28;20057;-54
2021/06/02 02:14:58;;;;;;;9.02;5.35;;;;;;;;;;5028669;28;20433;-56
2021/06/02 02:17:36;;;;;;;8.35;5.15;;;;;;;;;;5028934;28;20120;-54
2021/06/02 02:20:21;;;;;;;6.38;4.90;;;;;;;;;;5026714;28;20077;-50
2021/06/02 02:22:58;;;;;;;8.45;4.78;;;;;;;;;;5029111;28;20483;-50
2021/06/02 02:25:44;;;;;;;8.48;5.25;;;;;;;;;;5020288;28;20128;-54
2021/06/02 02:28:20;;;;;;;11.30;5.45;;;;;;;;;;5026115;28;20055;-55
2021/06/02 02:31:10;;;;;;;6.15;4.82;;;;;;;;;;5027545;28;20124;-52
2021/06/02 02:34:09;;;;;;;7.22;5.28;;;;;;;;;;5029809;28;20064;-52
2021/06/02 02:36:47;;;;;;;7.97;5.18;;;;;;;;;;4993027;28;20120;-50
2021/06/02 02:39:41;;;;;;;7.32;5.60;;;;;;;;;;5028779;28;20053;-52
2021/06/02 02:42:08;;;;;;;;;;;;;;;;;;5025491;28;20068;-52
2021/06/02 02:45:02;;;;;;;44.75;10.52;;;;;;;;;;5033401;28;19971;-52
2021/06/02 02:47:47;;;;;;;60.03;12.48;;;;;;;;;;5031421;28;20100;-52
2021/06/02 02:50:24;;;;;;;41.42;9.75;;;;;;;;;;5032017;28;20080;-56
2021/06/02 02:53:06;;;;;;;34.67;9.25;;;;;;;;;;5032704;28;20050;-50
2021/06/02 02:55:37;;;;;;;16.20;6.40;;;;;;;;;;5016085;28;20518;-50
2021/06/02 02:58:22;;;;;;;11.32;6.10;;;;;;;;;;5032265;28;20076;-58
2021/06/02 03:00:53;;;;;;;11.52;6.15;;;;;;;;;;5032441;28;20069;-50
2021/06/02 03:03:29;;;;;;;12.20;6.38;;;;;;;;;;5031054;28;20502;-53
2021/06/02 03:06:14;;;;;;;11.57;5.70;;;;;;;;;;5026931;28;20137;-51
2021/06/02 03:08:59;;;;;;;10.60;6.05;;;;;;;;;;5023153;28;20076;-55
2021/06/02 03:11:29;;;;;;;23.17;6.95;;;;;;;;;;5030319;28;20410;-51
2021/06/02 03:14:04;;;;;;;21.10;7.78;;;;;;;;;;5033899;28;20115;-53
2021/06/02 03:16:35;;;;;;;37.28;8.95;;;;;;;;;;5024202;28;20085;-53
2021/06/02 03:19:11;;;;;;;17.60;6.38;;;;;;;;;;5031986;28;20052;-49
2021/06/02 03:21:43;;;;;;;26.58;7.80;;;;;;;;;;5032753;28;20084;-51
2021/06/02 03:24:19;;;;;;;25.58;7.85;;;;;;;;;;5024501;28;20046;-51
2021/06/02 03:27:03;;;;;;;23.80;8.65;;;;;;;;;;5028830;28;20069;-51
2021/06/02 03:29:30;;;;;;;;;;;;;;;;;;5031798;28;20493;-53
2021/06/02 03:31:56;;;;;;;13.57;6.70;;;;;;;;;;5031586;28;20028;-49
2021/06/02 03:34:29;;;;;;;14.77;6.82;;;;;;;;;;5032903;28;20049;-49
2021/06/02 03:37:04;;;;;;;14.13;6.57;;;;;;;;;;5028773;28;20124;-50
2021/06/02 03:39:49;;;;;;;14.25;6.47;;;;;;;;;;5022165;28;20136;-53
2021/06/02 03:42:22;;;;;;;13.15;6.78;;;;;;;;;;5032546;28;20061;-53
2021/06/02 03:45:04;;;;;;;15.73;6.47;;;;;;;;;;5035762;28;20077;-49
2021/06/02 03:47:37;;;;;;;10.63;6.18;;;;;;;;;;5032927;28;20073;-54
2021/06/02 03:50:24;;;;;;;9.40;5.95;;;;;;;;;;5032638;28;20104;-51
2021/06/02 03:53:03;;;;;;;11.48;6.28;;;;;;;;;;5032124;28;20038;-56
2021/06/02 03:55:39;;;;;;;10.75;5.93;;;;;;;;;;5030165;28;20051;-55
2021/06/02 03:58:24;;;;;;;11.77;6.78;;;;;;;;;;5031128;28;20081;-56
2021/06/02 04:00:53;;;;;;;14.70;5.78;;;;;;;;;;5013302;28;20061;-54
2021/06/02 04:03:21;;;;;;;9.90;5.82;;;;;;;;;;5031856;28;20723;-56
2021/06/02 04:05:48;;;;;;;11.68;5.82;;;;;;;;;;5029545;28;20140;-56
2021/06/02 04:08:30;;;;;;;10.35;6.03;;;;;;;;;;5016357;28;20045;-55
2021/06/02 04:11:18;;;;;;;11.45;6.32;;;;;;;;;;5030180;28;20045;-56
2021/06/02 04:13:55;;;;;;;11.20;6.43;;;;;;;;;;5026446;28;20462;-56
2021/06/02 04:16:23;;;;;;;14.63;6.40;;;;;;;;;;5023759;28;20179;-55
2021/06/02 04:18:51;;;;;;;15.07;6.68;;;;;;;;;;5030027;28;20570;-55
2021/06/02 04:21:19;;;;;;;9.57;6.75;;;;;;;;;;5012753;28;20053;-56
2021/06/02 04:23:46;;;;;;;16.30;6.72;;;;;;;;;;5023660;28;20049;-56
2021/06/02 04:26:13;;;;;;;11.13;5.75;;;;;;;;;;5031557;28;20057;-55
2021/06/02 04:28:40;;;;;;;10.00;6.93;;;;;;;;;;5027800;28;20073;-56
2021/06/02 04:31:08;;;;;;;11.73;6.00;;;;;;;;;;5031449;28;20529;-55
2021/06/02 04:33:36;;;;;;;10.80;6.10;;;;;;;;;;5031379;28;20050;-55
2021/06/02 04:36:06;;;;;;;8.77;6.22;;;;;;;;;;5029559;28;20057;-55
2021/06/02 04:38:34;;;;;;;12.63;6.47;;;;;;;;;;5030338;28;20049;-56
2021/06/02 04:41:05;;;;;;;9.55;6.00;;;;;;;;;;5030767;28;20132;-54
2021/06/02 04:43:36;;;;;;;8.43;6.15;;;;;;;;;;5031221;28;20077;-55
2021/06/02 04:46:05;;;;;;;10.52;5.60;;;;;;;;;;5030283;28;20061;-55
2021/06/02 04:48:32;;;;;;;11.30;6.18;;;;;;;;;;5029884;28;20060;-54
2021/06/02 04:51:02;;;;;;;8.27;5.80;;;;;;;;;;5030829;28;20215;-56
2021/06/02 04:53:48;;;;;;;8.68;5.32;;;;;;;;;;5030067;28;20049;-54
2021/06/02 04:56:27;;;;;;;10.38;6.20;;;;;;;;;;5024776;28;20134;-55
2021/06/02 04:59:06;;;;;;;11.15;5.63;;;;;;;;;;5028000;28;20469;-56
2021/06/02 05:01:42;;;;;;;10.18;5.85;;;;;;;;;;5023258;28;20161;-52
2021/06/02 05:04:12;;;;;;;7.93;5.80;;;;;;;;;;5027696;28;20045;-56
2021/06/02 05:06:57;;;;;;;10.48;5.93;;;;;;;;;;5029847;28;20087;-55
2021/06/02 05:09:44;;;;;;;5.75;4.93;;;;;;;;;;5026898;28;20129;-55
2021/06/02 05:12:14;;;;;;;7.10;4.93;;;;;;;;;;5029930;28;20045;-55
2021/06/02 05:14:56;;;;;;;6.50;4.40;;;;;;;;;;5017484;28;20050;-54
2021/06/02 05:17:45;;;;;;;6.30;4.75;;;;;;;;;;5020917;28;20053;-55
2021/06/02 05:20:27;;;;;;;12.40;4.43;;;;;;;;;;5024385;28;20115;-56
2021/06/02 05:23:12;;;;;;;9.43;5.45;;;;;;;;;;5029105;28;20041;-54
2021/06/02 05:25:55;;;;;;;8.20;4.35;;;;;;;;;;5015799;28;20062;-54
2021/06/02 05:28:41;;;;;;;8.45;4.43;;;;;;;;;;5013181;28;20116;-55
2021/06/02 05:31:11;;;;;;;8.48;4.20;;;;;;;;;;5031902;28;20507;-55
2021/06/02 05:33:58;;;;;;;8.32;4.40;;;;;;;;;;5029750;28;20080;-54
2021/06/02 05:36:53;;;;;;;6.78;4.65;;;;;;;;;;4999777;28;20095;-51
2021/06/02 05:39:36;;;;;;;6.32;4.85;;;;;;;;;;5029558;28;20069;-51
2021/06/02 05:42:19;;;;;;;5.90;4.45;;;;;;;;;;5029331;28;20761;-54
2021/06/02 05:44:53;;;;;;;7.82;4.57;;;;;;;;;;5024631;28;20137;-54
2021/06/02 05:47:20;;;;;;;8.73;4.82;;;;;;;;;;5023855;28;20141;-50
2021/06/02 05:50:06;;;;;;;6.22;4.60;;;;;;;;;;5029638;28;20128;-53
2021/06/02 05:52:32;;;;;;;7.65;5.50;;;;;;;;;;5030566;28;20053;-49
2021/06/02 05:55:18;;;;;;;5.60;4.47;;;;;;;;;;5028776;28;20103;-53
2021/06/02 05:57:51;;;;;;;9.35;4.60;;;;;;;;;;5009538;28;20081;-51
2021/06/02 06:00:36;;;;;;;9.20;5.22;;;;;;;;;;5016767;28;20053;-54
2021/06/02 06:03:22;;;;;;;9.75;5.25;;;;;;;;;;5030245;28;20049;-50
2021/06/02 06:06:07;;;;;;;11.20;4.85;;;;;;;;;;5030091;28;20053;-52
2021/06/02 06:08:55;;;;;;;11.25;5.00;;;;;;;;;;5029093;28;20084;-53
2021/06/02 06:11:48;;;;;;;8.00;4.53;;;;;;;;;;5031069;28;20573;-54
2021/06/02 06:14:21;;;;;;;8.73;4.88;;;;;;;;;;5032526;28;20041;-51
2021/06/02 06:17:07;;;;;;;8.07;4.78;;;;;;;;;;5024387;28;20112;-51
2021/06/02 06:19:52;;;;;;;12.45;5.18;;;;;;;;;;5033094;28;20459;-51
2021/06/02 06:22:31;;;;;;;10.43;5.80;;;;;;;;;;5035292;28;20061;-52
2021/06/02 06:25:02;;;;;;;11.43;5.38;;;;;;;;;;5034595;28;20061;-54
2021/06/02 06:27:37;;;;;;;11.43;4.90;;;;;;;;;;5032602;28;20046;-54
2021/06/02 06:30:23;;;;;;;12.02;4.65;;;;;;;;;;5039403;28;20102;-54
2021/06/02 06:32:53;;;;;;;10.15;5.00;;;;;;;;;;5034155;28;20041;-51
2021/06/02 06:35:21;;;;;;;8.55;4.60;;;;;;;;;;5037932;28;20071;-55
2021/06/02 06:37:49;;;;;;;7.78;4.57;;;;;;;;;;5054055;28;20041;-56
2021/06/02 06:40:19;;;;;;;6.45;4.05;;;;;;;;;;5035965;28;20060;-54
2021/06/02 06:42:52;;;;;;;14.77;6.45;;;;;;;;;;5034252;28;20061;-52
2021/06/02 06:45:29;;;;;;;8.98;4.97;;;;;;;;;;5032425;28;20050;-55
2021/06/02 06:47:56;;;;;;;8.60;4.13;;;;;;;;;;5034178;28;20050;-51
2021/06/02 06:50:23;;;;;;;10.13;5.00;;;;;;;;;;5033040;28;20502;-52
2021/06/02 06:52:54;;;;;;;8.00;4.00;;;;;;;;;;5044573;28;20077;-53
2021/06/02 06:55:22;;;;;;;9.63;4.72;;;;;;;;;;5033574;28;20045;-52
2021/06/02 06:57:49;;;;;;;11.68;4.85;;;;;;;;;;5033835;28;20053;-54
2021/06/02 07:00:17;;;;;;;7.28;4.47;;;;;;;;;;5036622;28;20045;-51
2021/06/02 07:02:44;;;;;;;6.03;4.45;;;;;;;;;;5032557;28;20053;-55
2021/06/02 07:05:12;;;;;;;13.73;4.57;;;;;;;;;;5032176;28;20045;-51
2021/06/02 07:07:43;;;;;;;8.93;4.03;;;;;;;;;;5028048;28;20580;-50
2021/06/02 07:10:12;;;;;;;8.23;4.45;;;;;;;;;;5032271;28;20088;-53
2021/06/02 07:12:40;;;;;;;6.68;4.00;;;;;;;;;;5032929;28;20060;-51
2021/06/02 07:15:07;;;;;;;5.97;3.97;;;;;;;;;;5032783;28;20438;-52
2021/06/02 07:17:37;;;;;;;8.85;4.70;;;;;;;;;;5030974;28;20076;-55
2021/06/02 07:20:05;;;;;;;7.28;4.32;;;;;;;;;;5033623;28;20141;-54
2021/06/02 07:22:33;;;;;;;7.70;3.90;;;;;;;;;;5032763;28;20053;-52
2021/06/02 07:25:00;;;;;;;7.55;5.00;;;;;;;;;;5029728;28;20045;-52
2021/06/02 07:27:28;;;;;;;8.63;4.10;;;;;;;;;;5032367;28;20057;-50
2021/06/02 07:29:55;;;;;;;8.82;4.20;;;;;;;;;;5029587;28;20084;-53
2021/06/02 07:32:22;;;;;;;6.43;3.72;;;;;;;;;;5032387;28;20128;-51
2021/06/02 07:34:49;;;;;;;7.70;4.25;;;;;;;;;;5031148;28;20056;-54
2021/06/02 07:37:17;;;;;;;7.68;4.38;;;;;;;;;;5030371;28;20107;-49
2021/06/02 07:39:44;;;;;;;7.53;3.85;;;;;;;;;;5023544;28;20284;-50
2021/06/02 07:42:10;;;;;;;5.93;3.60;;;;;;;;;;5033211;28;20053;-50
2021/06/02 07:44:37;;;;;;;7.15;4.00;;;;;;;;;;5031083;28;20068;-52
2021/06/02 07:47:04;;;;;;;7.85;3.80;;;;;;;;;;5021080;28;20554;-49
2021/06/02 07:49:31;;;;;;;9.18;4.40;;;;;;;;;;5029497;28;20076;-49
2021/06/02 07:52:00;;;;;;;5.90;3.95;;;;;;;;;;5031799;28;20041;-54
2021/06/02 07:54:27;;;;;;;8.00;3.97;;;;;;;;;;5031688;28;20064;-50
2021/06/02 07:56:54;;;;;;;9.13;4.28;;;;;;;;;;5027487;28;20053;-51
2021/06/02 07:59:21;;;;;;;6.57;3.47;;;;;;;;;;5020604;28;20050;-48
2021/06/02 08:01:48;;;;;;;12.65;3.80;;;;;;;;;;5021188;28;20414;-56
2021/06/02 08:04:15;;;;;;;7.78;4.13;;;;;;;;;;5033475;28;20053;-52
2021/06/02 08:06:41;;;;;;;6.32;4.05;;;;;;;;;;5031679;28;20053;-48
2021/06/02 08:09:10;;;;;;;8.77;4.13;;;;;;;;;;5027964;28;20073;-51
2021/06/02 08:11:37;;;;;;;11.88;4.10;;;;;;;;;;5029724;28;20080;-53
2021/06/02 08:14:04;;;;;;;6.60;3.50;;;;;;;;;;5030807;28;20136;-54
2021/06/02 08:16:31;;;;;;;9.25;4.07;;;;;;;;;;5025526;28;20081;-49
2021/06/02 08:18:58;;;;;;;5.53;3.53;;;;;;;;;;5032888;28;20053;-50
2021/06/02 08:21:24;;;;;;;10.25;3.70;;;;;;;;;;5030993;28;20111;-48
2021/06/02 08:23:51;;;;;;;6.55;4.05;;;;;;;;;;5025047;28;20180;-54
2021/06/02 08:26:18;;;;;;;6.82;3.80;;;;;;;;;;5021550;28;20056;-51
2021/06/02 08:28:45;;;;;;;5.80;3.67;;;;;;;;;;5027088;28;20037;-50
2021/06/02 08:31:12;;;;;;;6.80;3.47;;;;;;;;;;5019246;28;20061;-54
2021/06/02 08:33:38;;;;;;;7.63;3.40;;;;;;;;;;5032695;28;20098;-50
2021/06/02 08:36:05;;;;;;;6.00;3.22;;;;;;;;;;5029828;28;20088;-53
2021/06/02 08:38:32;;;;;;;7.30;3.85;;;;;;;;;;5017125;28;20506;-49
2021/06/02 08:40:59;;;;;;;5.10;3.40;;;;;;;;;;5026859;28;20069;-51
2021/06/02 08:43:26;;;;;;;6.38;3.13;;;;;;;;;;5024964;28;20045;-56
2021/06/02 08:45:56;;;;;;;4.53;3.20;;;;;;;;;;5025284;28;20053;-53
2021/06/02 08:48:24;;;;;;;8.55;3.38;;;;;;;;;;5020319;28;20107;-52
2021/06/02 08:50:50;;;;;;;7.85;3.20;;;;;;;;;;5029263;28;20042;-51
2021/06/02 08:53:20;;;;;;;10.52;3.45;;;;;;;;;;5029561;28;20115;-49
2021/06/02 08:55:47;;;;;;;8.85;3.20;;;;;;;;;;5025401;28;20181;-51
2021/06/02 08:58:21;;;;;;;6.05;2.80;;;;;;;;;;5025493;28;20656;-51
2021/06/02 09:00:48;;;;;;;6.25;2.95;;;;;;;;;;5032091;28;20156;-48
2021/06/02 09:03:16;;;;;;;9.60;3.50;;;;;;;;;;5020872;28;20053;-54
2021/06/02 09:05:43;;;;;;;5.13;3.90;;;;;;;;;;5028701;28;20502;-54
2021/06/02 09:08:12;;;;;;;8.70;4.03;;;;;;;;;;5021333;28;20550;-49
2021/06/02 09:10:40;;;;;;;5.82;2.97;;;;;;;;;;5026234;28;20592;-51
2021/06/02 09:13:14;;;;;;;4.32;3.15;;;;;;;;;;5027457;28;20119;-52
2021/06/02 09:15:47;;;;;;;5.85;3.20;;;;;;;;;;5021413;28;20037;-50
2021/06/02 09:18:15;;;;;;;7.80;3.40;;;;;;;;;;5022859;28;20049;-51
2021/06/02 09:20:46;;;;;;;5.38;3.20;;;;;;;;;;5021014;28;20050;-52
2021/06/02 09:23:26;;;;;;;5.82;3.40;;;;;;;;;;5025304;28;20529;-52
2021/06/02 09:25:58;;;;;;;5.97;3.53;;;;;;;;;;5015016;28;20061;-53
2021/06/02 09:28:44;;;;;;;5.82;3.30;;;;;;;;;;5021413;28;20076;-54
2021/06/02 09:31:19;;;;;;;7.85;3.53;;;;;;;;;;5020267;28;20749;-49
2021/06/02 09:33:46;;;;;;;5.47;3.00;;;;;;;;;;5022780;28;20046;-57
2021/06/02 09:36:14;;;;;;;5.43;3.42;;;;;;;;;;5019346;28;20045;-52
2021/06/02 09:38:55;;;;;;;6.32;3.45;;;;;;;;;;5025550;28;20486;-49
2021/06/02 09:41:29;;;;;;;5.45;3.63;;;;;;;;;;5023550;28;20042;-51
2021/06/02 09:43:57;;;;;;;5.90;4.07;;;;;;;;;;5025929;28;20144;-53
2021/06/02 09:46:24;;;;;;;10.13;3.90;;;;;;;;;;5014425;28;20058;-51
2021/06/02 09:48:59;;;;;;;9.20;3.75;;;;;;;;;;5025511;28;20076;-54
2021/06/02 09:51:30;;;;;;;7.20;4.07;;;;;;;;;;5023377;28;20050;-54
2021/06/02 09:53:58;;;;;;;6.57;3.72;;;;;;;;;;5019882;28;20042;-51
2021/06/02 09:56:38;;;;;;;9.95;4.15;;;;;;;;;;5010407;28;20068;-52
2021/06/02 09:59:06;;;;;;;8.23;4.30;;;;;;;;;;5025997;28;20104;-57
2021/06/02 10:01:53;;;;;;;10.60;4.85;;;;;;;;;;5026314;28;20180;-49
2021/06/02 10:04:48;;;;;;;7.18;3.90;;;;;;;;;;5026788;28;20561;-48
2021/06/02 10:07:19;;;;;;;9.32;3.92;;;;;;;;;;5010095;28;20053;-48
2021/06/02 10:09:45;;;;;;;9.95;3.70;;;;;;;;;;5029616;28;20041;-48
2021/06/02 10:12:12;;;;;;;7.95;3.80;;;;;;;;;;5028789;28;20050;-56
2021/06/02 10:14:58;;;;;;;9.00;3.67;;;;;;;;;;5031066;28;20053;-49
2021/06/02 10:17:25;;;;;;;5.53;3.72;;;;;;;;;;5015701;28;20504;-54
2021/06/02 10:19:56;;;;;;;6.80;3.60;;;;;;;;;;5012625;28;20053;-54
2021/06/02 10:22:29;;;;;;;9.38;4.07;;;;;;;;;;5012093;28;20508;-53
2021/06/02 10:24:58;;;;;;;14.27;5.28;;;;;;;;;;5018896;28;20081;-47
2021/06/02 10:27:25;;;;;;;9.02;4.70;;;;;;;;;;5010857;28;20085;-52
2021/06/02 10:29:52;;;;;;;7.13;4.90;;;;;;;;;;5021464;28;20380;-53
2021/06/02 10:32:19;;;;;;;7.03;4.88;;;;;;;;;;5031052;28;20492;-54
2021/06/02 10:34:47;;;;;;;8.70;4.90;;;;;;;;;;5022085;28;20055;-54
2021/06/02 10:37:15;;;;;;;6.90;4.88;;;;;;;;;;5010289;28;20073;-54
2021/06/02 10:39:46;;;;;;;11.52;5.00;;;;;;;;;;5020586;28;20083;-55
2021/06/02 10:42:21;;;;;;;6.80;4.65;;;;;;;;;;5031201;28;20057;-51
2021/06/02 10:44:50;;;;;;;7.53;3.95;;;;;;;;;;5026609;28;20081;-47
2021/06/02 10:47:21;;;;;;;6.20;4.40;;;;;;;;;;5013709;28;20049;-54
2021/06/02 10:49:48;;;;;;;11.48;4.22;;;;;;;;;;5030664;28;20145;-55
2021/06/02 10:52:33;;;;;;;5.70;4.03;;;;;;;;;;5028596;28;20115;-56
2021/06/02 10:55:20;;;;;;;6.82;4.18;;;;;;;;;;5011000;28;20062;-53
2021/06/02 10:58:05;;;;;;;10.10;6.00;;;;;;;;;;5010700;28;20448;-53
2021/06/02 11:00:32;;;;;;;6.38;3.78;;;;;;;;;;5014585;28;20053;-56
2021/06/02 11:03:29;;;;;;;5.47;3.30;;;;;;;;;;5027456;28;20098;-51
2021/06/02 11:05:57;;;;;;;6.97;3.50;;;;;;;;;;5025866;28;20080;-55
2021/06/02 11:08:59;;;;;;;8.50;3.60;;;;;;;;;;5030154;28;20068;-48
2021/06/02 11:11:29;;;;;;;7.65;3.88;;;;;;;;;;5031651;28;20608;-50
2021/06/02 11:14:21;;;;;;;5.22;3.45;;;;;;;;;;5033732;28;20473;-53
2021/06/02 11:17:00;;;;;;;3.67;3.08;;;;;;;;;;5032175;28;20107;-50
2021/06/02 11:19:30;;;;;;;8.77;3.40;;;;;;;;;;5033942;28;20470;-53
2021/06/02 11:21:56;;;;;;;6.80;3.20;;;;;;;;;;5024117;28;20090;-53
2021/06/02 11:24:33;;;;;;;4.47;3.33;;;;;;;;;;5014084;28;20061;-47
2021/06/02 11:27:15;;;;;;;6.00;3.30;;;;;;;;;;5023712;28;20061;-53
2021/06/02 11:29:48;;;;;;;7.97;3.35;;;;;;;;;;5020025;28;20046;-53
2021/06/02 11:32:15;;;;;;;4.15;2.97;;;;;;;;;;5022088;28;20046;-52
2021/06/02 11:34:43;;;;;;;7.28;2.88;;;;;;;;;;5031666;28;20568;-52
2021/06/02 11:37:11;;;;;;;3.67;2.70;;;;;;;;;;5030850;28;20045;-54
2021/06/02 11:39:38;;;;;;;11.93;2.65;;;;;;;;;;5025567;28;20235;-49
2021/06/02 11:42:06;;;;;;;6.20;2.95;;;;;;;;;;5025597;28;20624;-52
2021/06/02 11:44:34;;;;;;;6.80;3.10;;;;;;;;;;5031208;28;20114;-50
2021/06/02 11:47:01;;;;;;;7.40;2.88;;;;;;;;;;5012740;28;20578;-48
2021/06/02 11:49:29;;;;;;;4.57;2.85;;;;;;;;;;5008964;28;20092;-52
2021/06/02 11:52:04;;;;;;;5.78;3.15;;;;;;;;;;5013313;28;20132;-45
2021/06/02 11:54:46;;;;;;;7.50;3.58;;;;;;;;;;5017766;28;20046;-44
2021/06/02 11:57:32;;;;;;;13.60;3.85;;;;;;;;;;5032675;28;20175;-43
2021/06/02 12:00:01;;;;;;;5.45;3.17;;;;;;;;;;5015215;28;20085;-44
2021/06/02 12:02:30;;;;;;;9.52;3.20;;;;;;;;;;5020927;28;20050;-52
2021/06/02 12:05:15;;;;;;;6.20;3.63;;;;;;;;;;5031690;28;20381;-49
2021/06/02 12:07:55;;;;;;;6.70;3.70;;;;;;;;;;5030069;28;20057;-52
2021/06/02 12:10:29;;;;;;;3.75;2.95;;;;;;;;;;5022796;28;20492;-42
2021/06/02 12:12:56;;;;;;;5.38;2.53;;;;;;;;;;5032138;28;20045;-45
2021/06/02 12:15:23;;;;;;;5.72;2.55;;;;;;;;;;5031373;28;20087;-49
2021/06/02 12:17:51;;;;;;;6.38;2.72;;;;;;;;;;5029885;28;20049;-46
2021/06/02 12:20:20;;;;;;;4.70;2.65;;;;;;;;;;5031367;28;20049;-50
2021/06/02 12:22:47;;;;;;;3.42;2.55;;;;;;;;;;5030656;28;20053;-48
2021/06/02 12:25:17;;;;;;;5.45;2.53;;;;;;;;;;5028030;28;20056;-53
2021/06/02 12:27:44;;;;;;;4.45;2.70;;;;;;;;;;5027260;28;20045;-53
2021/06/02 12:30:14;;;;;;;9.68;3.00;;;;;;;;;;5019556;28;20038;-52
2021/06/02 12:33:01;;;;;;;6.68;3.00;;;;;;;;;;5028181;28;20080;-54
2021/06/02 12:35:44;;;;;;;5.05;3.13;;;;;;;;;;5025766;28;20483;-53
2021/06/02 12:38:15;;;;;;;6.30;2.80;;;;;;;;;;5028871;28;20041;-50
2021/06/02 12:40:46;;;;;;;5.85;2.95;;;;;;;;;;5028862;28;20099;-51
2021/06/02 12:43:15;;;;;;;5.88;2.88;;;;;;;;;;5031013;28;20072;-52
2021/06/02 12:45:44;;;;;;;4.43;2.70;;;;;;;;;;5026599;28;20045;-50
2021/06/02 12:48:12;;;;;;;6.22;3.25;;;;;;;;;;5023055;28;20552;-49
2021/06/02 12:50:47;;;;;;;4.63;2.30;;;;;;;;;;5024046;28;20073;-51
2021/06/02 12:53:15;;;;;;;4.97;2.60;;;;;;;;;;5030741;28;20049;-52
2021/06/02 12:55:46;;;;;;;4.70;2.78;;;;;;;;;;5028623;28;20080;-51
2021/06/02 12:58:14;;;;;;;6.95;2.75;;;;;;;;;;5021715;28;20112;-49
2021/06/02 13:00:41;;;;;;;3.88;2.83;;;;;;;;;;5021070;28;20438;-52
2021/06/02 13:03:10;;;;;;;4.50;3.40;;;;;;;;;;5031618;28;20053;-52
2021/06/02 13:05:37;;;;;;;8.25;3.58;;;;;;;;;;5031369;28;20076;-52
2021/06/02 13:08:08;;;;;;;6.05;3.40;;;;;;;;;;5024839;28;20068;-48
2021/06/02 13:10:36;;;;;;;5.88;3.35;;;;;;;;;;5027624;28;20607;-48
2021/06/02 13:13:04;;;;;;;4.75;3.20;;;;;;;;;;5026720;28;20522;-44
2021/06/02 13:15:32;;;;;;;5.88;3.20;;;;;;;;;;5030284;28;20141;-49
2021/06/02 13:17:59;;;;;;;4.63;2.78;;;;;;;;;;5014352;28;20542;-45
2021/06/02 13:20:30;;;;;;;5.40;3.30;;;;;;;;;;5021827;28;20057;-48
2021/06/02 13:23:16;;;;;;;5.32;3.33;;;;;;;;;;5028290;28;20422;-44
2021/06/02 13:25:44;;;;;;;4.90;3.65;;;;;;;;;;5025202;28;20069;-45
2021/06/02 13:28:11;;;;;;;8.55;3.00;;;;;;;;;;5027314;28;20108;-47
2021/06/02 13:30:39;;;;;;;4.50;3.35;;;;;;;;;;5020065;28;20045;-49
2021/06/02 13:33:06;;;;;;;5.32;3.65;;;;;;;;;;5029683;28;20053;-44
2021/06/02 13:35:33;;;;;;;4.35;2.75;;;;;;;;;;5019699;28;20144;-45
2021/06/02 13:37:59;;;;;;;6.38;3.28;;;;;;;;;;5024100;28;20061;-46
2021/06/02 13:40:31;;;;;;;4.20;3.22;;;;;;;;;;5031224;28;20057;-45
2021/06/02 13:43:00;;;;;;;4.25;3.00;;;;;;;;;;5031610;28;20128;-49
2021/06/02 13:45:36;;;;;;;4.78;2.90;;;;;;;;;;5024423;28;20099;-52
2021/06/02 13:48:25;;;;;;;4.93;2.97;;;;;;;;;;5014634;28;20522;-53
2021/06/02 13:51:10;;;;;;;4.90;3.00;;;;;;;;;;5029838;28;20057;-52
2021/06/02 13:53:56;;;;;;;4.40;2.53;;;;;;;;;;5027505;28;20136;-51
2021/06/02 13:56:23;;;;;;;3.72;2.50;;;;;;;;;;5011882;28;20054;-50
2021/06/02 13:59:19;;;;;;;3.15;2.17;;;;;;;;;;5011534;28;20046;-50
2021/06/02 14:01:47;;;;;;;3.67;2.22;;;;;;;;;;5008215;28;20179;-50
2021/06/02 14:04:16;;;;;;;5.95;2.90;;;;;;;;;;5030428;28;20053;-44
2021/06/02 14:06:49;;;;;;;11.00;4.05;;;;;;;;;;5028140;28;20069;-47
2021/06/02 14:09:18;;;;;;;29.45;7.85;;;;;;;;;;5026866;28;20053;-52
2021/06/02 14:11:45;;;;;;;16.67;6.20;;;;;;;;;;5025036;28;20080;-49
2021/06/02 14:14:12;;;;;;;6.25;2.88;;;;;;;;;;5022822;28;20041;-51
2021/06/02 14:16:39;;;;;;;5.10;2.35;;;;;;;;;;5030250;28;20049;-49
2021/06/02 14:19:06;;;;;;;5.70;2.60;;;;;;;;;;5028383;28;20096;-46
2021/06/02 14:21:34;;;;;;;3.97;2.90;;;;;;;;;;5019631;28;20100;-49
2021/06/02 14:24:02;;;;;;;4.78;2.58;;;;;;;;;;5023565;28;20037;-51
2021/06/02 14:26:30;;;;;;;7.43;2.40;;;;;;;;;;5029741;28;20042;-53
2021/06/02 14:28:57;;;;;;;5.07;2.25;;;;;;;;;;5028793;28;20041;-52
2021/06/02 14:31:23;;;;;;;4.10;2.10;;;;;;;;;;5032151;28;20050;-53
2021/06/02 14:33:50;;;;;;;4.07;2.80;;;;;;;;;;5031195;28;20063;-52
2021/06/02 14:36:17;;;;;;;4.60;2.28;;;;;;;;;;5028891;28;20447;-48
2021/06/02 14:38:44;;;;;;;6.40;2.38;;;;;;;;;;5029096;28;20120;-46
2021/06/02 14:41:11;;;;;;;3.30;2.20;;;;;;;;;;5020212;28;20081;-49
2021/06/02 14:43:38;;;;;;;6.22;2.33;;;;;;;;;;5033321;28;20491;-47
2021/06/02 14:46:05;;;;;;;4.80;2.05;;;;;;;;;;5025654;28;20140;-45
2021/06/02 14:48:33;;;;;;;5.05;2.35;;;;;;;;;;5024607;28;20053;-50
2021/06/02 14:51:01;;;;;;;3.80;2.50;;;;;;;;;;5035128;28;20041;-48
2021/06/02 14:53:28;;;;;;;4.45;2.22;;;;;;;;;;5032583;28;20124;-51
2021/06/02 14:55:56;;;;;;;4.05;2.50;;;;;;;;;;5031203;28;20135;-51
2021/06/02 14:58:23;;;;;;;3.58;2.10;;;;;;;;;;5031880;28;20057;-49
2021/06/02 15:00:50;;;;;;;6.45;2.30;;;;;;;;;;5027037;28;20046;-53
2021/06/02 15:03:17;;;;;;;3.35;2.10;;;;;;;;;;5030662;28;20091;-52
2021/06/02 15:05:44;;;;;;;3.85;2.05;;;;;;;;;;5032557;28;20045;-51
2021/06/02 15:08:11;;;;;;;4.78;2.30;;;;;;;;;;5030180;28;20465;-51
2021/06/02 15:10:40;;;;;;;6.25;2.40;;;;;;;;;;5033935;28;20096;-50
2021/06/02 15:13:06;;;;;;;6.53;1.92;;;;;;;;;;5033086;28;20053;-48